Virgilina, VA (24598)

09:47 PM EDT del 26 Aprile 2015 (GMT -0400)
Oak Hill | | Change Station
CLOSE
Current Station
Stazione meteo personale
Location: Oxford, NC
Altitudine: 499 ft
Stazioni meteo nelle vicinanze

Alt. 499 ft 36.44 °N, 78.73 °W | Updated 1 minute ago

Coperto
Coperto
46.0 °F
Sembra 46 °F
N
0.0
Vento Variabile Vento da SSO

Oggi
Massima -- | Minima -- °F
--% Possibilità di precip.
Ieri
Massima -- | Minima -- °F
Precip. -- in
6:27 AM 7:58 PM
Primo quarto, 60% visible
Pressione 29.76 in
Visibilità 10.0 miglia
Nuvole Coperto 12000 ft
Raffreddamento del vento 46 °F
Punto di rugiada 44 °F
Umidità 91%
Piovosità 0.02 in
Spessore del manto nevoso Non disponibile.
Raggi UV 0 fuori da 12
Polline 7.20 fuori da 12
Qualità dell'aria Non disponibile.
Flu Activity Sporadic
METAR KHNZ 270115Z AUTO 00000KT 10SM OVC120 10/07 A2976 RMK AO2 T00950068

More Conditions Fewer Conditions

Pressione 29.76 in
Visibilità 10.0 miglia
Nuvole Coperto 12000 ft
Raffreddamento del vento 46 °F
Punto di rugiada 44 °F
Umidità 91%
Piovosità 0.02 in
Spessore del manto nevoso Non disponibile.
Raggi UV 0 fuori da 12
Polline 7.20 fuori da 12
Qualità dell'aria Non disponibile.
Flu Activity Sporadic
METAR KHNZ 270115Z AUTO 00000KT 10SM OVC120 10/07 A2976 RMK AO2 T00950068

More Conditions Fewer Conditions

The full scope of the disaster following a powerful 7.8-magnitude earthquake in Nepal may not come into view for days, but global charities are already sending emergency aid. Click to see how you can help.

10-Day Weather Forecast

Almanac

Astronomia

Apr. 26, 2015 Alba Tramonto
Ora attuale
Crepuscolo civile
Crepuscolo nautico
Crepuscolo astronomico
Luna
Estensione della luce visibile
Lunghezza del giorno
Tomorrow will be .
, % of the Moon is Illuminated

Gli estremi di oggi

State Highs State Lows

Community

WunderPhotos

Upload Photos

1,817,202 foto caricate!

WunderBlogs® & News

Nearby

Qualità dell'aria

  Qualità dell'aria Indice AQ Inquinante
Not available.

Profondità neve

Stazione Profondità Altitudine

Attività sismica

Città  Distanza Mag. Data & Ora
Minimo Magnitudo Mostrato è 2.5.

Temperature delle acque costiere

Località Temperatura

Stations

Stazioni meteo nelle vicinanze

Ubicazione della stazione Temp. Raffreddamento del vento Punto di rugiada Umidità Vento Precip. Alt. Aggiornato Tipo